Local area metar reports


Our local metar:
KGOO 191055Z AUTO 11005KT 10SM CLR 20/09 A2999 RMK A01

Decoded:

station                        KGOO
observed_date Mon, 19 Aug 2019 10:55:00 +0000
observed_age 5 min. ago
wind_speed 5
wind_direction 110
wind_direction_label ESE
visibility_report 10 miles
present_weather_report Dry
clouds_report Clear skies
temperature_f 68
dew_point_f 48
humidity 49
barometer 29.99
remarks A01

Auburn metar:
KAUN 191055Z AUTO 00000KT 10SM CLR 16/12 A2993 RMK A01

Decoded:

station                        KAUN
observed_date Mon, 19 Aug 2019 10:55:00 +0000
observed_age 5 min. ago
wind_speed 0
wind_direction 0
wind_direction_label N
visibility_report 10 miles
present_weather_report Dry
clouds_report Clear skies
temperature_f 61
dew_point_f 54
humidity 77
barometer 29.93
remarks A01

Lincoln metar:
KLHM 191055Z AUTO 16007KT 10SM CLR 16/12 A2988 RMK AO1

Decoded:

station                        KLHM
observed_date Mon, 19 Aug 2019 10:55:00 +0000
observed_age 5 min. ago
wind_speed 7
wind_direction 160
wind_direction_label SSE
visibility_report 10 miles
present_weather_report Dry
clouds_report Clear skies
temperature_f 61
dew_point_f 54
humidity 77
barometer 29.88
remarks AO1